createdAt,value
2022-12-22T00:00:59.517Z,0
2022-12-22T00:01:59.741Z,0
2022-12-22T00:02:59.673Z,0
2022-12-22T00:03:59.652Z,0
2022-12-22T00:04:59.494Z,0
2022-12-22T00:05:59.513Z,0
2022-12-22T00:06:59.497Z,0
2022-12-22T00:07:59.561Z,0
2022-12-22T00:09:05.219Z,0
2022-12-22T00:09:59.522Z,0
2022-12-22T00:10:59.495Z,0
2022-12-22T00:11:59.499Z,0
2022-12-22T00:12:59.613Z,0
2022-12-22T00:13:59.510Z,0
2022-12-22T00:14:59.498Z,0
2022-12-22T00:15:59.497Z,0
2022-12-22T00:16:59.574Z,0
2022-12-22T00:17:59.506Z,0
2022-12-22T00:18:59.507Z,0
2022-12-22T00:19:59.500Z,0
2022-12-22T00:20:59.514Z,0
2022-12-22T00:21:59.493Z,0
2022-12-22T00:22:59.517Z,0
2022-12-22T00:23:59.499Z,0
2022-12-22T00:24:59.500Z,0
2022-12-22T00:25:59.495Z,0
2022-12-22T00:26:59.519Z,0
2022-12-22T00:27:59.515Z,0
2022-12-22T00:28:59.510Z,0
2022-12-22T00:29:59.538Z,0
2022-12-22T00:30:59.585Z,0
2022-12-22T00:31:59.529Z,0
2022-12-22T00:32:59.519Z,0
2022-12-22T00:33:59.528Z,0
2022-12-22T00:34:59.514Z,0
2022-12-22T00:35:59.537Z,0
2022-12-22T00:36:59.528Z,0
2022-12-22T00:37:59.569Z,0
2022-12-22T00:38:59.512Z,0
2022-12-22T00:39:59.509Z,0
2022-12-22T00:40:59.519Z,0
2022-12-22T00:41:59.516Z,0
2022-12-22T00:42:59.527Z,0
2022-12-22T00:43:59.515Z,0
2022-12-22T00:44:59.513Z,0
2022-12-22T00:45:59.538Z,0
2022-12-22T00:46:59.555Z,0
2022-12-22T00:47:59.546Z,0
2022-12-22T00:48:59.519Z,0
2022-12-22T00:49:59.523Z,0
2022-12-22T00:50:59.534Z,0
2022-12-22T00:51:59.514Z,0
2022-12-22T00:52:59.533Z,0
2022-12-22T00:53:59.540Z,0
2022-12-22T00:54:59.531Z,0
2022-12-22T00:55:59.513Z,0
2022-12-22T00:56:59.510Z,0
2022-12-22T00:57:59.532Z,0
2022-12-22T00:58:59.521Z,0
2022-12-22T00:59:59.517Z,0
2022-12-22T01:00:59.602Z,0
2022-12-22T01:01:59.670Z,0
2022-12-22T01:02:59.699Z,0
2022-12-22T01:03:59.522Z,0
2022-12-22T01:04:59.524Z,0
2022-12-22T01:05:59.535Z,0
2022-12-22T01:06:59.536Z,0
2022-12-22T01:07:59.529Z,0
2022-12-22T01:08:59.531Z,0
2022-12-22T01:09:59.509Z,0
2022-12-22T01:10:59.517Z,0
2022-12-22T01:11:59.516Z,0
2022-12-22T01:12:59.742Z,0
2022-12-22T01:13:59.514Z,0
2022-12-22T01:14:59.520Z,0
2022-12-22T01:15:59.603Z,0
2022-12-22T01:16:59.523Z,0
2022-12-22T01:17:59.530Z,0
2022-12-22T01:18:59.506Z,0
2022-12-22T01:19:59.502Z,0
2022-12-22T01:20:59.508Z,0
2022-12-22T01:21:59.503Z,0
2022-12-22T01:22:59.571Z,0
2022-12-22T01:23:59.496Z,0
2022-12-22T01:24:59.515Z,0
2022-12-22T01:25:59.510Z,0
2022-12-22T01:26:59.500Z,0
2022-12-22T01:27:59.511Z,0
2022-12-22T01:28:59.504Z,0
2022-12-22T01:29:59.505Z,0
2022-12-22T01:30:59.618Z,0
2022-12-22T01:31:59.501Z,0
2022-12-22T01:32:59.538Z,0
2022-12-22T01:33:59.509Z,0
2022-12-22T01:34:59.505Z,0
2022-12-22T01:35:59.526Z,0
2022-12-22T01:36:59.497Z,0
2022-12-22T01:37:59.523Z,0
2022-12-22T01:38:59.506Z,0
2022-12-22T01:39:59.518Z,0
2022-12-22T01:40:59.503Z,0
2022-12-22T01:41:59.527Z,0
2022-12-22T01:42:59.526Z,0
2022-12-22T01:43:59.523Z,0
2022-12-22T01:44:59.529Z,0
2022-12-22T01:45:59.661Z,0
2022-12-22T01:46:59.515Z,0
2022-12-22T01:47:59.541Z,0
2022-12-22T01:48:59.522Z,0
2022-12-22T01:49:59.513Z,0
2022-12-22T01:50:59.521Z,0
2022-12-22T01:51:59.515Z,0
2022-12-22T01:52:59.529Z,0
2022-12-22T01:53:59.510Z,0
2022-12-22T01:54:59.526Z,0
2022-12-22T01:55:59.684Z,0
2022-12-22T01:56:59.525Z,0
2022-12-22T01:57:59.527Z,0
2022-12-22T01:58:59.540Z,0
2022-12-22T01:59:59.662Z,0
2022-12-22T02:00:59.498Z,0
2022-12-22T02:01:59.659Z,0
2022-12-22T02:02:59.726Z,0
2022-12-22T02:03:59.584Z,0
2022-12-22T02:04:59.545Z,0
2022-12-22T02:05:59.544Z,0
2022-12-22T02:07:00.288Z,0
2022-12-22T02:07:59.523Z,0
2022-12-22T02:08:59.561Z,0
2022-12-22T02:09:59.513Z,0
2022-12-22T02:10:59.521Z,0
2022-12-22T02:11:59.514Z,0
2022-12-22T02:12:59.662Z,0
2022-12-22T02:13:59.515Z,0
2022-12-22T02:14:59.529Z,0
2022-12-22T02:15:59.551Z,0
2022-12-22T02:16:59.514Z,0
2022-12-22T02:17:59.520Z,0
2022-12-22T02:18:59.552Z,0
2022-12-22T02:19:59.517Z,0
2022-12-22T02:20:59.541Z,0
2022-12-22T02:21:59.515Z,0
2022-12-22T02:22:59.536Z,0
2022-12-22T02:23:59.518Z,0
2022-12-22T02:24:59.512Z,0
2022-12-22T02:25:59.500Z,0
2022-12-22T02:26:59.510Z,0
2022-12-22T02:27:59.518Z,0
2022-12-22T02:28:59.495Z,0
2022-12-22T02:29:59.496Z,0
2022-12-22T02:30:59.538Z,0
2022-12-22T02:31:59.518Z,0
2022-12-22T02:33:05.211Z,0
2022-12-22T02:33:59.557Z,0
2022-12-22T02:34:59.495Z,0
2022-12-22T02:35:59.506Z,0
2022-12-22T02:36:59.495Z,0
2022-12-22T02:37:59.532Z,0
2022-12-22T02:38:59.495Z,0
2022-12-22T02:39:59.535Z,0
2022-12-22T02:40:59.500Z,0
2022-12-22T02:41:59.491Z,0
2022-12-22T02:42:59.515Z,0
2022-12-22T02:43:59.498Z,0
2022-12-22T02:44:59.492Z,0
2022-12-22T02:45:59.492Z,0
2022-12-22T02:46:59.632Z,0
2022-12-22T02:47:59.530Z,0
2022-12-22T02:48:59.529Z,0
2022-12-22T02:49:59.506Z,0
2022-12-22T02:50:59.524Z,0
2022-12-22T02:51:59.520Z,0
2022-12-22T02:52:59.522Z,0
2022-12-22T02:53:59.507Z,0
2022-12-22T02:54:59.518Z,0
2022-12-22T02:55:59.523Z,0
2022-12-22T02:56:59.505Z,0
2022-12-22T02:57:59.525Z,0
2022-12-22T02:58:59.612Z,0
2022-12-22T02:59:59.512Z,0
2022-12-22T03:00:59.503Z,0
2022-12-22T03:01:59.767Z,0
2022-12-22T03:02:59.754Z,0
2022-12-22T03:03:59.618Z,0
2022-12-22T03:04:59.599Z,0
2022-12-22T03:05:59.525Z,0
2022-12-22T03:06:59.500Z,0
2022-12-22T03:08:04.468Z,0
2022-12-22T03:08:59.511Z,0
2022-12-22T03:09:59.502Z,0
2022-12-22T03:10:59.516Z,0
2022-12-22T03:11:59.510Z,0
2022-12-22T03:12:59.543Z,0
2022-12-22T03:13:59.513Z,0
2022-12-22T03:14:59.520Z,0
2022-12-22T03:15:59.590Z,0
2022-12-22T03:16:59.505Z,0
2022-12-22T03:17:59.557Z,0
2022-12-22T03:18:59.496Z,0
2022-12-22T03:19:59.508Z,0
2022-12-22T03:20:59.519Z,0
2022-12-22T03:21:59.535Z,0
2022-12-22T03:22:59.528Z,0
2022-12-22T03:23:59.496Z,0
2022-12-22T03:24:59.516Z,0
2022-12-22T03:25:59.509Z,0
2022-12-22T03:26:59.503Z,0
2022-12-22T03:27:59.505Z,0
2022-12-22T03:28:59.519Z,0
2022-12-22T03:29:59.513Z,0
2022-12-22T03:30:59.533Z,0
2022-12-22T03:31:59.640Z,0
2022-12-22T03:32:59.532Z,0
2022-12-22T03:33:59.518Z,0
2022-12-22T03:34:59.503Z,0
2022-12-22T03:35:59.573Z,0
2022-12-22T03:36:59.492Z,0
2022-12-22T03:37:59.530Z,0
2022-12-22T03:38:59.494Z,0
2022-12-22T03:39:59.496Z,0
2022-12-22T03:40:59.492Z,0
2022-12-22T03:41:59.489Z,0
2022-12-22T03:42:59.523Z,0
2022-12-22T03:43:59.488Z,0
2022-12-22T03:44:59.489Z,0
2022-12-22T03:45:59.495Z,0
2022-12-22T03:46:59.673Z,0
2022-12-22T03:47:59.504Z,0
2022-12-22T03:48:59.493Z,0
2022-12-22T03:49:59.518Z,0
2022-12-22T03:50:59.505Z,0
2022-12-22T03:51:59.492Z,0
2022-12-22T03:52:59.518Z,0
2022-12-22T03:53:59.496Z,0
2022-12-22T03:54:59.490Z,0
2022-12-22T03:56:05.715Z,0
2022-12-22T03:56:59.498Z,0
2022-12-22T03:57:59.502Z,0
2022-12-22T03:58:59.509Z,0
2022-12-22T03:59:59.505Z,0
2022-12-22T04:00:59.560Z,0
2022-12-22T04:01:59.762Z,0
2022-12-22T04:02:59.631Z,0
2022-12-22T04:03:59.493Z,0
2022-12-22T04:04:59.496Z,0
2022-12-22T04:05:59.521Z,0
2022-12-22T04:06:59.549Z,0
2022-12-22T04:07:59.537Z,0
2022-12-22T04:08:59.506Z,0
2022-12-22T04:09:59.526Z,0
2022-12-22T04:10:59.510Z,0
2022-12-22T04:11:59.516Z,0
2022-12-22T04:12:59.573Z,0
2022-12-22T04:13:59.502Z,0
2022-12-22T04:14:59.500Z,0
2022-12-22T04:15:59.650Z,0
2022-12-22T04:16:59.609Z,0
2022-12-22T04:17:59.538Z,0
2022-12-22T04:18:59.516Z,0
2022-12-22T04:19:59.518Z,0
2022-12-22T04:20:59.519Z,0
2022-12-22T04:21:59.505Z,0
2022-12-22T04:22:59.541Z,0
2022-12-22T04:23:59.530Z,0
2022-12-22T04:24:59.509Z,0
2022-12-22T04:25:59.514Z,0
2022-12-22T04:26:59.516Z,0
2022-12-22T04:27:59.517Z,0
2022-12-22T04:28:59.680Z,0
2022-12-22T04:29:59.531Z,0
2022-12-22T04:30:59.510Z,0
2022-12-22T04:31:59.569Z,0
2022-12-22T04:32:59.552Z,0
2022-12-22T04:33:59.529Z,0
2022-12-22T04:34:59.522Z,0
2022-12-22T04:35:59.526Z,0
2022-12-22T04:37:09.861Z,0
2022-12-22T04:37:59.551Z,0
2022-12-22T04:38:59.522Z,0
2022-12-22T04:39:59.514Z,0
2022-12-22T04:40:59.511Z,0
2022-12-22T04:41:59.503Z,0
2022-12-22T04:42:59.537Z,0
2022-12-22T04:43:59.582Z,0
2022-12-22T04:44:59.503Z,0
2022-12-22T04:45:59.573Z,0
2022-12-22T04:46:59.516Z,0
2022-12-22T04:47:59.519Z,0
2022-12-22T04:49:00.148Z,0
2022-12-22T04:49:59.492Z,0
2022-12-22T04:50:59.534Z,0
2022-12-22T04:51:59.504Z,0
2022-12-22T04:52:59.533Z,0
2022-12-22T04:53:59.514Z,0
2022-12-22T04:54:59.504Z,0
2022-12-22T04:55:59.525Z,0
2022-12-22T04:56:59.491Z,0
2022-12-22T04:57:59.508Z,0
2022-12-22T04:58:59.498Z,0
2022-12-22T04:59:59.494Z,0
2022-12-22T05:00:59.568Z,0
2022-12-22T05:01:59.602Z,0
2022-12-22T05:02:59.699Z,0
2022-12-22T05:03:59.502Z,0
2022-12-22T05:04:59.489Z,0
2022-12-22T05:05:59.514Z,0
2022-12-22T05:06:59.495Z,0
2022-12-22T05:07:59.510Z,0
2022-12-22T05:08:59.494Z,0
2022-12-22T05:09:59.494Z,0
2022-12-22T05:10:59.494Z,0
2022-12-22T05:11:59.503Z,0
2022-12-22T05:12:59.517Z,0
2022-12-22T05:14:05.216Z,0
2022-12-22T05:14:59.493Z,0
2022-12-22T05:15:59.494Z,0
2022-12-22T05:16:59.575Z,0
2022-12-22T05:17:59.518Z,0
2022-12-22T05:18:59.511Z,0
2022-12-22T05:19:59.513Z,0
2022-12-22T05:20:59.518Z,0
2022-12-22T05:21:59.524Z,0
2022-12-22T05:22:59.519Z,0
2022-12-22T05:23:59.509Z,0
2022-12-22T05:24:59.507Z,0
2022-12-22T05:25:59.516Z,0
2022-12-22T05:26:59.515Z,0
2022-12-22T05:27:59.547Z,0
2022-12-22T05:28:59.516Z,0
2022-12-22T05:29:59.574Z,0
2022-12-22T05:30:59.559Z,0
2022-12-22T05:31:59.515Z,0
2022-12-22T05:32:59.517Z,0
2022-12-22T05:33:59.612Z,0
2022-12-22T05:34:59.527Z,0
2022-12-22T05:35:59.520Z,0
2022-12-22T05:36:59.553Z,0
2022-12-22T05:37:59.530Z,0
2022-12-22T05:38:59.513Z,0
2022-12-22T05:39:59.512Z,0
2022-12-22T05:41:03.954Z,0
2022-12-22T05:41:59.509Z,0
2022-12-22T05:42:59.515Z,0
2022-12-22T05:43:59.510Z,0
2022-12-22T05:44:59.512Z,0
2022-12-22T05:45:59.512Z,0
2022-12-22T05:46:59.599Z,0
2022-12-22T05:47:59.531Z,0
2022-12-22T05:48:59.515Z,0
2022-12-22T05:49:59.518Z,0
2022-12-22T05:50:59.519Z,0
2022-12-22T05:51:59.515Z,0
2022-12-22T05:52:59.547Z,0
2022-12-22T05:53:59.514Z,0
2022-12-22T05:54:59.517Z,0
2022-12-22T05:55:59.509Z,0
2022-12-22T05:56:59.515Z,0
2022-12-22T05:57:59.519Z,0
2022-12-22T05:58:59.508Z,0
2022-12-22T05:59:59.511Z,0
2022-12-22T06:00:59.592Z,0
2022-12-22T06:01:59.527Z,0
2022-12-22T06:02:59.651Z,0
2022-12-22T06:04:00.361Z,0
2022-12-22T06:04:59.492Z,0
2022-12-22T06:05:59.508Z,0
2022-12-22T06:06:59.493Z,0
2022-12-22T06:07:59.500Z,0
2022-12-22T06:08:59.491Z,0
2022-12-22T06:09:59.490Z,0
2022-12-22T06:10:59.486Z,0
2022-12-22T06:11:59.588Z,0
2022-12-22T06:12:59.522Z,0
2022-12-22T06:13:59.502Z,0
2022-12-22T06:14:59.517Z,0
2022-12-22T06:15:59.548Z,0
2022-12-22T06:16:59.495Z,0
2022-12-22T06:17:59.633Z,0
2022-12-22T06:18:59.513Z,0
2022-12-22T06:19:59.503Z,0
2022-12-22T06:20:59.502Z,0
2022-12-22T06:21:59.497Z,0
2022-12-22T06:22:59.527Z,0
2022-12-22T06:23:59.608Z,0
2022-12-22T06:24:59.518Z,0
2022-12-22T06:25:59.514Z,0
2022-12-22T06:26:59.515Z,0
2022-12-22T06:27:59.525Z,0
2022-12-22T06:28:59.514Z,0
2022-12-22T06:29:59.518Z,0
2022-12-22T06:30:59.627Z,0
2022-12-22T06:31:59.513Z,0
2022-12-22T06:32:59.520Z,0
2022-12-22T06:33:59.526Z,1
2022-12-22T06:34:59.513Z,3
2022-12-22T06:35:59.794Z,3
2022-12-22T06:36:59.514Z,5
2022-12-22T06:37:59.519Z,5
2022-12-22T06:38:59.514Z,7
2022-12-22T06:39:59.541Z,9
2022-12-22T06:40:59.511Z,9
2022-12-22T06:41:59.517Z,11
2022-12-22T06:43:04.102Z,14
2022-12-22T06:43:59.508Z,18
2022-12-22T06:44:59.517Z,22
2022-12-22T06:45:59.542Z,25
2022-12-22T06:46:59.533Z,31
2022-12-22T06:47:59.529Z,38
2022-12-22T06:48:59.526Z,44
2022-12-22T06:49:59.505Z,46
2022-12-22T06:50:59.535Z,51
2022-12-22T06:51:59.532Z,57
2022-12-22T06:52:59.530Z,58
2022-12-22T06:53:59.513Z,62
2022-12-22T06:54:59.516Z,66
2022-12-22T06:55:59.508Z,73
2022-12-22T06:56:59.509Z,84
2022-12-22T06:57:59.523Z,90
2022-12-22T06:58:59.513Z,101
2022-12-22T06:59:59.506Z,110
2022-12-22T07:00:59.513Z,116
2022-12-22T07:01:59.563Z,127
2022-12-22T07:02:59.669Z,132
2022-12-22T07:03:59.657Z,134
2022-12-22T07:04:59.515Z,151
2022-12-22T07:05:59.517Z,169
2022-12-22T07:06:59.514Z,189
2022-12-22T07:08:05.746Z,204
2022-12-22T07:08:59.510Z,204
2022-12-22T07:09:59.496Z,204
2022-12-22T07:10:59.531Z,228
2022-12-22T07:11:59.503Z,248
2022-12-22T07:12:59.529Z,256
2022-12-22T07:13:59.509Z,256
2022-12-22T07:14:59.502Z,254
2022-12-22T07:16:01.176Z,246
2022-12-22T07:16:59.498Z,250
2022-12-22T07:17:59.507Z,252
2022-12-22T07:18:59.485Z,252
2022-12-22T07:19:59.489Z,258
2022-12-22T07:20:59.505Z,258
2022-12-22T07:21:59.491Z,283
2022-12-22T07:22:59.510Z,307
2022-12-22T07:23:59.503Z,324
2022-12-22T07:24:59.521Z,342
2022-12-22T07:25:59.496Z,352
2022-12-22T07:26:59.498Z,363
2022-12-22T07:27:59.503Z,363
2022-12-22T07:28:59.494Z,368
2022-12-22T07:29:59.500Z,370
2022-12-22T07:30:59.582Z,374
2022-12-22T07:31:59.496Z,381
2022-12-22T07:32:59.712Z,392
2022-12-22T07:33:59.504Z,399
2022-12-22T07:35:04.982Z,435
2022-12-22T07:35:59.509Z,447
2022-12-22T07:36:59.521Z,460
2022-12-22T07:37:59.524Z,470
2022-12-22T07:38:59.515Z,505
2022-12-22T07:39:59.509Z,482
2022-12-22T07:41:04.578Z,484
2022-12-22T07:41:59.508Z,477
2022-12-22T07:42:59.607Z,505
2022-12-22T07:43:59.513Z,497
2022-12-22T07:44:59.551Z,543
2022-12-22T07:45:59.533Z,615
2022-12-22T07:46:59.522Z,685
2022-12-22T07:47:59.534Z,740
2022-12-22T07:48:59.513Z,787
2022-12-22T07:49:59.512Z,829
2022-12-22T07:50:59.533Z,827
2022-12-22T07:51:59.516Z,809
2022-12-22T07:52:59.526Z,803
2022-12-22T07:53:59.510Z,796
2022-12-22T07:54:59.517Z,783
2022-12-22T07:55:59.519Z,777
2022-12-22T07:56:59.520Z,790
2022-12-22T07:57:59.606Z,838
2022-12-22T07:58:59.516Z,873
2022-12-22T07:59:59.514Z,940
2022-12-22T08:00:59.520Z,1034
2022-12-22T08:01:59.629Z,1144
2022-12-22T08:02:59.698Z,1279
2022-12-22T08:03:59.574Z,1404
2022-12-22T08:04:59.578Z,1494
2022-12-22T08:05:59.525Z,1540
2022-12-22T08:06:59.507Z,1515
2022-12-22T08:07:59.543Z,1502
2022-12-22T08:08:59.546Z,1502
2022-12-22T08:09:59.514Z,1640
2022-12-22T08:10:59.513Z,1727
2022-12-22T08:11:59.523Z,1760
2022-12-22T08:12:59.578Z,1739
2022-12-22T08:14:01.543Z,1704
2022-12-22T08:14:59.511Z,1574
2022-12-22T08:15:59.551Z,1463
2022-12-22T08:16:59.516Z,1395
2022-12-22T08:17:59.520Z,1376
2022-12-22T08:18:59.519Z,1347
2022-12-22T08:19:59.522Z,1502
2022-12-22T08:20:59.506Z,1502
2022-12-22T08:21:59.501Z,1798
2022-12-22T08:22:59.539Z,1791
2022-12-22T08:23:59.505Z,1751
2022-12-22T08:24:59.499Z,1686
2022-12-22T08:25:59.491Z,1550
2022-12-22T08:26:59.498Z,1494
2022-12-22T08:27:59.506Z,1434
2022-12-22T08:28:59.516Z,1474
2022-12-22T08:29:59.512Z,1612
2022-12-22T08:30:59.498Z,1612
2022-12-22T08:31:59.581Z,1579
2022-12-22T08:32:59.511Z,1426
2022-12-22T08:33:59.492Z,1358
2022-12-22T08:34:59.529Z,1292
2022-12-22T08:36:05.828Z,1175
2022-12-22T08:36:59.501Z,1238
2022-12-22T08:37:59.504Z,1168
2022-12-22T08:38:59.499Z,1174
2022-12-22T08:39:59.500Z,1175
2022-12-22T08:40:59.498Z,1166
2022-12-22T08:41:59.497Z,1157
2022-12-22T08:42:59.503Z,1129
2022-12-22T08:43:59.491Z,1087
2022-12-22T08:44:59.495Z,991
2022-12-22T08:45:59.511Z,1013
2022-12-22T08:46:59.648Z,1024
2022-12-22T08:47:59.527Z,1032
2022-12-22T08:48:59.519Z,1041
2022-12-22T08:49:59.500Z,1065
2022-12-22T08:50:59.509Z,1181
2022-12-22T08:51:59.507Z,1316
2022-12-22T08:52:59.516Z,1419
2022-12-22T08:54:04.851Z,1516
2022-12-22T08:54:59.511Z,1599
2022-12-22T08:55:59.508Z,1690
2022-12-22T08:56:59.519Z,1727
2022-12-22T08:57:59.527Z,1749
2022-12-22T08:58:59.523Z,1795
2022-12-22T08:59:59.515Z,1915
2022-12-22T09:00:59.587Z,1782
2022-12-22T09:01:59.757Z,1786
2022-12-22T09:02:59.622Z,1675
2022-12-22T09:03:59.513Z,1686
2022-12-22T09:04:59.516Z,1679
2022-12-22T09:05:59.604Z,1627
2022-12-22T09:06:59.508Z,1564
2022-12-22T09:07:59.537Z,1598
2022-12-22T09:08:59.527Z,1598
2022-12-22T09:09:59.517Z,2007
2022-12-22T09:10:59.506Z,1957
2022-12-22T09:11:59.506Z,2141
2022-12-22T09:12:59.677Z,2152
2022-12-22T09:13:59.509Z,2029
2022-12-22T09:14:59.497Z,1848
2022-12-22T09:15:59.625Z,1920
2022-12-22T09:16:59.614Z,2014
2022-12-22T09:17:59.524Z,2670
2022-12-22T09:18:59.516Z,3026
2022-12-22T09:19:59.520Z,3356
2022-12-22T09:20:59.519Z,3642
2022-12-22T09:21:59.516Z,3616
2022-12-22T09:22:59.515Z,3474
2022-12-22T09:23:59.518Z,3210
2022-12-22T09:24:59.511Z,2910
2022-12-22T09:25:59.495Z,2910
2022-12-22T09:26:59.511Z,2477
2022-12-22T09:27:59.520Z,2668
2022-12-22T09:28:59.522Z,2644
2022-12-22T09:29:59.510Z,2967
2022-12-22T09:30:59.504Z,3938
2022-12-22T09:31:59.580Z,3938
2022-12-22T09:32:59.504Z,4427
2022-12-22T09:33:59.487Z,4600
2022-12-22T09:34:59.504Z,5221
2022-12-22T09:35:59.505Z,5148
2022-12-22T09:36:59.528Z,4666
2022-12-22T09:37:59.505Z,4418
2022-12-22T09:38:59.500Z,6347
2022-12-22T09:39:59.501Z,7947
2022-12-22T09:40:59.491Z,6171
2022-12-22T09:41:59.496Z,5732
2022-12-22T09:42:59.512Z,6270
2022-12-22T09:43:59.493Z,6071
2022-12-22T09:44:59.491Z,5986
2022-12-22T09:45:59.544Z,5785
2022-12-22T09:46:59.501Z,5492
2022-12-22T09:47:59.502Z,5638
2022-12-22T09:48:59.506Z,5223
2022-12-22T09:49:59.491Z,5262
2022-12-22T09:50:59.522Z,5275
2022-12-22T09:51:59.502Z,5081
2022-12-22T09:52:59.504Z,5234
2022-12-22T09:53:59.493Z,4744
2022-12-22T09:54:59.511Z,4550
2022-12-22T09:55:59.538Z,5391
2022-12-22T09:56:59.506Z,5734
2022-12-22T09:57:59.521Z,6119
2022-12-22T09:58:59.506Z,6088
2022-12-22T09:59:59.514Z,5476
2022-12-22T10:00:59.621Z,5100
2022-12-22T10:01:59.791Z,5219
2022-12-22T10:02:59.561Z,9304
2022-12-22T10:04:00.699Z,12434
2022-12-22T10:04:59.513Z,11263
2022-12-22T10:05:59.523Z,13381
2022-12-22T10:06:59.523Z,13036
2022-12-22T10:07:59.519Z,11868
2022-12-22T10:08:59.508Z,11868
2022-12-22T10:09:59.529Z,9518
2022-12-22T10:10:59.505Z,8723
2022-12-22T10:11:59.533Z,6502
2022-12-22T10:12:59.532Z,6124
2022-12-22T10:13:59.508Z,4779
2022-12-22T10:14:59.550Z,4451
2022-12-22T10:15:59.511Z,4877
2022-12-22T10:16:59.538Z,4948
2022-12-22T10:17:59.520Z,3979
2022-12-22T10:18:59.505Z,4873
2022-12-22T10:19:59.513Z,6624
2022-12-22T10:20:59.543Z,5089
2022-12-22T10:21:59.517Z,3964
2022-12-22T10:22:59.555Z,3428
2022-12-22T10:23:59.502Z,3422
2022-12-22T10:24:59.518Z,3100
2022-12-22T10:26:27.385Z,2941
2022-12-22T10:26:59.512Z,2609
2022-12-22T10:27:59.520Z,2582
2022-12-22T10:28:59.514Z,2589
2022-12-22T10:29:59.519Z,2403
2022-12-22T10:30:59.518Z,3026
2022-12-22T10:31:59.600Z,3247
2022-12-22T10:32:59.515Z,3009
2022-12-22T10:33:59.519Z,2893
2022-12-22T10:34:59.517Z,3201
2022-12-22T10:35:59.529Z,3140
2022-12-22T10:36:59.511Z,2976
2022-12-22T10:37:59.522Z,2703
2022-12-22T10:38:59.564Z,2632
2022-12-22T10:39:59.505Z,2403
2022-12-22T10:41:02.483Z,2228
2022-12-22T10:41:59.501Z,2228
2022-12-22T10:42:59.503Z,2088
2022-12-22T10:43:59.493Z,1998
2022-12-22T10:44:59.490Z,2055
2022-12-22T10:45:59.585Z,2241
2022-12-22T10:46:59.504Z,2425
2022-12-22T10:47:59.502Z,2364
2022-12-22T10:48:59.491Z,2447
2022-12-22T10:50:59.507Z,2456
2022-12-22T10:51:59.497Z,2560
2022-12-22T10:52:59.508Z,2646
2022-12-22T10:53:59.495Z,2689
2022-12-22T10:54:59.490Z,2394
2022-12-22T10:55:59.490Z,2510
2022-12-22T10:56:59.498Z,2198
2022-12-22T10:58:05.349Z,2410
2022-12-22T10:58:59.493Z,2536
2022-12-22T10:59:59.495Z,2416
2022-12-22T11:00:59.510Z,2058
2022-12-22T11:01:59.664Z,2296
2022-12-22T11:02:59.808Z,2232
2022-12-22T11:03:59.583Z,2270
2022-12-22T11:04:59.495Z,2248
2022-12-22T11:05:59.617Z,2186
2022-12-22T11:06:59.499Z,2145
2022-12-22T11:07:59.520Z,2479
2022-12-22T11:09:31.222Z,2479
2022-12-22T11:09:59.523Z,2444
2022-12-22T11:10:59.511Z,2355
2022-12-22T11:11:59.759Z,2174
2022-12-22T11:12:59.540Z,1721
2022-12-22T11:13:59.507Z,1445
2022-12-22T11:14:59.517Z,1618
2022-12-22T11:15:59.514Z,1603
2022-12-22T11:16:59.638Z,1642
2022-12-22T11:17:59.544Z,1598
2022-12-22T11:18:59.512Z,1717
2022-12-22T11:19:59.518Z,2055
2022-12-22T11:20:59.523Z,2114
2022-12-22T11:21:59.706Z,2657
2022-12-22T11:22:59.528Z,2873
2022-12-22T11:23:59.510Z,2694
2022-12-22T11:24:59.504Z,2565
2022-12-22T11:25:59.535Z,3033
2022-12-22T11:26:59.966Z,2827
2022-12-22T11:27:59.521Z,3057
2022-12-22T11:28:59.515Z,2960
2022-12-22T11:29:59.505Z,3102
2022-12-22T11:30:59.575Z,2709
2022-12-22T11:32:00.134Z,2095
2022-12-22T11:32:59.518Z,2029
2022-12-22T11:33:59.623Z,2331
2022-12-22T11:34:59.530Z,2331
2022-12-22T11:35:59.507Z,2488
2022-12-22T11:36:59.520Z,2506
2022-12-22T11:37:59.525Z,2550
2022-12-22T11:38:59.661Z,2375
2022-12-22T11:39:59.829Z,2418
2022-12-22T11:40:59.513Z,2661
2022-12-22T11:41:59.940Z,3218
2022-12-22T11:42:59.527Z,3387
2022-12-22T11:43:59.555Z,3728
2022-12-22T11:44:59.514Z,3717
2022-12-22T11:45:59.577Z,3780
2022-12-22T11:47:00.097Z,3669
2022-12-22T11:47:59.520Z,3514
2022-12-22T11:48:59.509Z,3258
2022-12-22T11:50:00.862Z,2893
2022-12-22T11:51:11.095Z,2602
2022-12-22T11:51:59.513Z,2416
2022-12-22T11:52:59.515Z,2326
2022-12-22T11:54:01.734Z,2232
2022-12-22T11:54:59.497Z,2232
2022-12-22T11:55:59.495Z,2141
2022-12-22T11:56:59.494Z,1916
2022-12-22T11:57:59.552Z,1857
2022-12-22T11:58:59.514Z,2020
2022-12-22T11:59:59.499Z,2261
2022-12-22T12:01:14.922Z,2261
2022-12-22T12:01:59.613Z,2593
2022-12-22T12:02:59.558Z,2630
2022-12-22T12:03:59.605Z,2727
2022-12-22T12:04:59.497Z,2762
2022-12-22T12:05:59.524Z,2508
2022-12-22T12:06:59.496Z,2488
2022-12-22T12:07:59.502Z,2340
2022-12-22T12:08:59.500Z,2340
2022-12-22T12:09:59.493Z,2176
2022-12-22T12:10:59.498Z,1920
2022-12-22T12:11:59.503Z,1861
2022-12-22T12:12:59.520Z,1832
2022-12-22T12:13:59.492Z,1832
2022-12-22T12:14:59.497Z,1953
2022-12-22T12:15:59.551Z,1974
2022-12-22T12:16:59.495Z,1929
2022-12-22T12:17:59.515Z,1874
2022-12-22T12:18:59.490Z,1810
2022-12-22T12:19:59.511Z,1758
2022-12-22T12:20:59.513Z,1714
2022-12-22T12:21:59.497Z,1579
2022-12-22T12:22:59.517Z,1585
2022-12-22T12:23:59.511Z,1504
2022-12-22T12:24:59.516Z,1356
2022-12-22T12:25:59.509Z,1295
2022-12-22T12:26:59.511Z,1312
2022-12-22T12:27:59.589Z,1384
2022-12-22T12:28:59.509Z,1483
2022-12-22T12:30:28.476Z,1627
2022-12-22T12:30:59.655Z,1854
2022-12-22T12:31:59.580Z,1985
2022-12-22T12:32:59.528Z,2079
2022-12-22T12:33:59.510Z,1992
2022-12-22T12:34:59.615Z,1817
2022-12-22T12:35:59.522Z,1769
2022-12-22T12:36:59.511Z,2206
2022-12-22T12:37:59.517Z,2270
2022-12-22T12:39:08.810Z,2370
2022-12-22T12:39:59.509Z,2775
2022-12-22T12:40:59.504Z,3113
2022-12-22T12:41:59.513Z,3456
2022-12-22T12:42:59.513Z,3690
2022-12-22T12:43:59.503Z,3319
2022-12-22T12:44:59.511Z,4228
2022-12-22T12:45:59.513Z,4090
2022-12-22T12:46:59.599Z,4058
2022-12-22T12:47:59.529Z,4447
2022-12-22T12:48:59.515Z,4331
2022-12-22T12:49:59.530Z,4427
2022-12-22T12:50:59.538Z,4043
2022-12-22T12:51:59.517Z,3645
2022-12-22T12:52:59.519Z,3478
2022-12-22T12:53:59.539Z,3360
2022-12-22T12:54:59.517Z,3175
2022-12-22T12:55:59.525Z,3074
2022-12-22T12:56:59.518Z,2797
2022-12-22T12:57:59.527Z,2676
2022-12-22T12:58:59.511Z,2517
2022-12-22T12:59:59.523Z,2414
2022-12-22T13:00:59.561Z,2346
2022-12-22T13:01:59.824Z,2318
2022-12-22T13:02:59.618Z,2265
2022-12-22T13:04:04.652Z,2298
2022-12-22T13:04:59.514Z,2355
2022-12-22T13:05:59.518Z,2355
2022-12-22T13:06:59.585Z,2495
2022-12-22T13:07:59.530Z,2495
2022-12-22T13:09:22.137Z,2586
2022-12-22T13:09:59.542Z,2488
2022-12-22T13:10:59.498Z,2488
2022-12-22T13:12:12.333Z,2219
2022-12-22T13:12:59.522Z,2189
2022-12-22T13:13:59.565Z,2195
2022-12-22T13:14:59.490Z,2259
2022-12-22T13:15:59.566Z,2339
2022-12-22T13:16:59.521Z,2370
2022-12-22T13:17:59.588Z,2379
2022-12-22T13:18:59.503Z,2405
2022-12-22T13:19:59.498Z,2390
2022-12-22T13:21:18.770Z,2409
2022-12-22T13:21:59.496Z,2486
2022-12-22T13:22:59.502Z,2504
2022-12-22T13:24:24.152Z,2619
2022-12-22T13:24:59.497Z,2521
2022-12-22T13:25:59.496Z,2460
2022-12-22T13:26:59.495Z,2311
2022-12-22T13:27:59.544Z,2104
2022-12-22T13:28:59.509Z,2003
2022-12-22T13:29:59.492Z,2020
2022-12-22T13:30:59.746Z,2125
2022-12-22T13:31:59.669Z,2191
2022-12-22T13:32:59.507Z,2232
2022-12-22T13:33:59.510Z,2252
2022-12-22T13:35:30.514Z,2294
2022-12-22T13:35:59.630Z,2374
2022-12-22T13:36:59.519Z,2456
2022-12-22T13:37:59.517Z,2497
2022-12-22T13:38:59.501Z,2497
2022-12-22T13:39:59.515Z,2484
2022-12-22T13:40:59.529Z,2412
2022-12-22T13:41:59.571Z,2281
2022-12-22T13:42:59.537Z,2121
2022-12-22T13:43:59.507Z,2009
2022-12-22T13:44:59.507Z,1951
2022-12-22T13:45:59.524Z,1909
2022-12-22T13:46:59.554Z,1863
2022-12-22T13:47:59.524Z,1747
2022-12-22T13:48:59.721Z,1634
2022-12-22T13:50:08.913Z,1570
2022-12-22T13:50:59.512Z,1524
2022-12-22T13:52:04.972Z,1513
2022-12-22T13:52:59.580Z,1529
2022-12-22T13:54:08.982Z,1535
2022-12-22T13:54:59.509Z,1539
2022-12-22T13:55:59.516Z,1505
2022-12-22T13:56:59.519Z,1428
2022-12-22T13:57:59.526Z,1386
2022-12-22T13:58:59.905Z,1375
2022-12-22T13:59:59.511Z,1437
2022-12-22T14:00:59.587Z,1529
2022-12-22T14:01:59.740Z,1623
2022-12-22T14:02:59.654Z,1607